Time;durP1;ratioP1;P1;durP2;ratioP2;P2;SDS_P1;SDS_P2;PMS_P1;PMS_P2;Temp;Humidity;BMP_temperature;BMP_pressure;BME280_temperature;BME280_humidity;BME280_pressure;Samples;Min_cycle;Max_cycle;Signal;HPM_P1;HPM_P2
2023/02/13 00:03:03;;;;;;;;;;;8.10;99.90;;;;;;8382722;28;19925;-71
2023/02/13 00:07:05;;;;;;;;;;;8.00;99.90;;;;;;8383352;28;19952;-71
2023/02/13 00:11:07;;;;;;;;;;;8.00;99.90;;;;;;8394771;28;19970;-71
2023/02/13 00:15:08;;;;;;;;;;;8.00;99.90;;;;;;8386731;28;19955;-71
2023/02/13 00:19:10;;;;;;;;;;;8.00;99.90;;;;;;8389654;28;20387;-71
2023/02/13 00:23:12;;;;;;;;;;;8.10;99.90;;;;;;8363695;28;19967;-71
2023/02/13 00:27:13;;;;;;;;;;;8.10;99.90;;;;;;8387903;28;19929;-71
2023/02/13 00:31:16;;;;;;;;;;;8.00;99.90;;;;;;8379987;28;20067;-71
2023/02/13 00:35:18;;;;;;;;;;;8.10;99.90;;;;;;8391385;28;19925;-71
2023/02/13 00:39:20;;;;;;;;;;;8.10;99.90;;;;;;8387832;28;19936;-71
2023/02/13 00:43:21;;;;;;;;;;;8.00;99.90;;;;;;8381694;28;19932;-72
2023/02/13 00:47:23;;;;;;;;;;;8.00;99.90;;;;;;8383861;28;20431;-72
2023/02/13 00:51:25;;;;;;;;;;;8.00;99.90;;;;;;8396487;28;19970;-71
2023/02/13 00:55:26;;;;;;;;;;;8.00;99.90;;;;;;8388345;28;20362;-71
2023/02/13 00:59:28;;;;;;;;;;;8.00;99.90;;;;;;8371786;28;20261;-71
2023/02/13 01:03:30;;;;;;;;;;;8.00;99.90;;;;;;8370968;28;19975;-71
2023/02/13 01:07:31;;;;;;;;;;;7.90;99.90;;;;;;8387977;28;19924;-71
2023/02/13 01:11:33;;;;;;;;;;;7.90;99.90;;;;;;8365916;28;19958;-71
2023/02/13 01:15:35;;;;;;;;;;;7.90;99.90;;;;;;8385575;28;19932;-71
2023/02/13 01:19:39;;;;;;;;;;;8.00;99.90;;;;;;8370553;28;19974;-71
2023/02/13 01:23:40;;;;;;;;;;;7.90;99.90;;;;;;8389879;28;19982;-71
2023/02/13 01:27:42;;;;;;;;;;;7.90;99.90;;;;;;8380068;28;20402;-71
2023/02/13 01:31:43;;;;;;;;;;;7.90;99.90;;;;;;8384994;28;19967;-71
2023/02/13 01:35:45;;;;;;;;;;;7.90;99.90;;;;;;8377170;28;20364;-71
2023/02/13 01:39:47;;;;;;;;;;;7.90;99.90;;;;;;8383934;28;19932;-71
2023/02/13 01:43:56;;;;;;;;;;;7.90;99.90;;;;;;8373140;28;19932;-71
2023/02/13 01:53:08;;;;;;;;;;;7.90;99.90;;;;;;8390710;28;19958;-71
2023/02/13 01:57:13;;;;;;;;;;;7.80;99.90;;;;;;8392613;28;20010;-71
2023/02/13 02:01:15;;;;;;;;;;;7.80;99.90;;;;;;8390967;28;19925;-71
2023/02/13 02:05:18;;;;;;;;;;;7.90;99.90;;;;;;8392951;28;19936;-71
2023/02/13 02:09:22;;;;;;;;;;;7.80;99.90;;;;;;8395042;28;19928;-71
2023/02/13 02:13:24;;;;;;;;;;;7.80;99.90;;;;;;8372900;28;19929;-71
2023/02/13 02:17:26;;;;;;;;;;;7.80;99.90;;;;;;8393461;28;19947;-71
2023/02/13 02:21:31;;;;;;;;;;;7.90;99.90;;;;;;8386285;28;19931;-71
2023/02/13 02:25:56;;;;;;;;;;;7.80;99.90;;;;;;8388585;28;19924;-71
2023/02/13 02:30:11;;;;;;;;;;;7.80;99.90;;;;;;8388371;28;20380;-71
2023/02/13 02:34:19;;;;;;;;;;;7.80;99.90;;;;;;8404591;28;19928;-71
2023/02/13 02:38:24;;;;;;;;;;;7.80;99.90;;;;;;8397471;28;19940;-71
2023/02/13 02:42:35;;;;;;;;;;;7.80;99.90;;;;;;8387259;28;19928;-71
2023/02/13 02:49:57;;;;;;;;;;;7.80;99.90;;;;;;8383739;28;19973;-71
2023/02/13 02:51:00;;;;;;;;;;;7.80;99.90;;;;;;8389597;28;19929;-71
2023/02/13 02:55:05;;;;;;;;;;;7.80;99.90;;;;;;8392041;28;19932;-71
2023/02/13 03:07:51;;;;;;;;;;;7.80;99.90;;;;;;8384922;28;20334;-72
2023/02/13 03:25:28;;;;;;;;;;;7.80;99.90;;;;;;8382471;28;19963;-72
2023/02/13 03:34:01;;;;;;;;;;;7.70;99.90;;;;;;8389709;28;19932;-71
2023/02/13 03:38:21;;;;;;;;;;;7.80;99.90;;;;;;8383118;28;19925;-71
2023/02/13 03:42:31;;;;;;;;;;;7.80;99.90;;;;;;8386182;28;19967;-71
2023/02/13 03:46:35;;;;;;;;;;;7.80;99.90;;;;;;8389609;28;19968;-71
2023/02/13 03:50:39;;;;;;;;;;;7.80;99.90;;;;;;8388844;28;19929;-71
2023/02/13 03:59:17;;;;;;;;;;;7.80;99.90;;;;;;8391446;28;19979;-71
2023/02/13 04:03:32;;;;;;;;;;;7.80;99.90;;;;;;8380221;28;19963;-71
2023/02/13 04:07:34;;;;;;;;;;;7.80;99.90;;;;;;8393031;28;19931;-71
2023/02/13 04:11:41;;;;;;;;;;;7.80;99.90;;;;;;8383328;28;20384;-71
2023/02/13 04:16:10;;;;;;;;;;;7.80;99.90;;;;;;8364137;28;19972;-71
2023/02/13 04:20:11;;;;;;;;;;;7.80;99.90;;;;;;8381047;28;19933;-71
2023/02/13 04:24:13;;;;;;;;;;;7.80;99.90;;;;;;8375037;28;19955;-71
2023/02/13 04:28:15;;;;;;;;;;;7.80;99.90;;;;;;8381353;28;19931;-72
2023/02/13 04:32:17;;;;;;;;;;;7.80;99.90;;;;;;8379171;28;20703;-71
2023/02/13 04:36:19;;;;;;;;;;;7.80;99.90;;;;;;8383466;28;20583;-71
2023/02/13 04:40:20;;;;;;;;;;;7.80;99.90;;;;;;8383114;28;20702;-71
2023/02/13 04:44:22;;;;;;;;;;;7.80;99.90;;;;;;8390461;28;19932;-71
2023/02/13 04:48:23;;;;;;;;;;;7.80;99.90;;;;;;8396058;28;19931;-71
2023/02/13 04:52:25;;;;;;;;;;;7.80;99.90;;;;;;8387414;28;20027;-71
2023/02/13 04:56:27;;;;;;;;;;;7.80;99.90;;;;;;8369809;28;19925;-71
2023/02/13 05:00:28;;;;;;;;;;;7.80;99.90;;;;;;8394262;28;19930;-71
2023/02/13 05:04:30;;;;;;;;;;;7.80;99.90;;;;;;8392103;28;19924;-72
2023/02/13 05:08:32;;;;;;;;;;;7.80;99.90;;;;;;8379669;28;19940;-71
2023/02/13 05:12:34;;;;;;;;;;;7.80;99.90;;;;;;8382340;28;20026;-71
2023/02/13 05:16:35;;;;;;;;;;;7.80;99.90;;;;;;8372305;28;19960;-71
2023/02/13 05:20:37;;;;;;;;;;;7.80;99.90;;;;;;8396731;28;20266;-71
2023/02/13 05:24:39;;;;;;;;;;;7.80;99.90;;;;;;8389986;28;20008;-71
2023/02/13 05:33:00;;;;;;;;;;;7.80;99.90;;;;;;8390905;28;19924;-71
2023/02/13 05:37:02;;;;;;;;;;;7.80;99.90;;;;;;8393068;28;20456;-71
2023/02/13 05:41:04;;;;;;;;;;;7.80;99.90;;;;;;8379293;28;19972;-71
2023/02/13 05:45:06;;;;;;;;;;;7.80;99.90;;;;;;8387901;28;19936;-71
2023/02/13 05:49:08;;;;;;;;;;;7.80;99.90;;;;;;8390641;28;19924;-71
2023/02/13 05:53:10;;;;;;;;;;;7.80;99.90;;;;;;8383022;28;19987;-71
2023/02/13 05:57:12;;;;;;;;;;;7.90;99.90;;;;;;8371601;28;19935;-71
2023/02/13 06:01:13;;;;;;;;;;;7.80;99.90;;;;;;8384268;28;19943;-72
2023/02/13 06:05:15;;;;;;;;;;;7.80;99.90;;;;;;8364930;28;19950;-71
2023/02/13 06:09:16;;;;;;;;;;;7.80;99.90;;;;;;8384404;28;19924;-71
2023/02/13 06:13:18;;;;;;;;;;;7.90;99.90;;;;;;8391079;28;20442;-71
2023/02/13 06:17:20;;;;;;;;;;;7.90;99.90;;;;;;8384335;28;19929;-71
2023/02/13 06:21:21;;;;;;;;;;;7.90;99.90;;;;;;8389473;28;20403;-71
2023/02/13 06:25:23;;;;;;;;;;;7.90;99.90;;;;;;8386462;28;19967;-71
2023/02/13 06:29:25;;;;;;;;;;;7.80;99.90;;;;;;8383199;28;19972;-71
2023/02/13 06:33:26;;;;;;;;;;;7.80;99.90;;;;;;8397932;28;19994;-71
2023/02/13 06:37:28;;;;;;;;;;;7.70;99.90;;;;;;8394301;28;20383;-71
2023/02/13 06:41:30;;;;;;;;;;;7.70;99.90;;;;;;8392825;28;19963;-71
2023/02/13 06:45:31;;;;;;;;;;;7.60;99.90;;;;;;8394209;28;19925;-71
2023/02/13 06:49:33;;;;;;;;;;;7.50;99.90;;;;;;8383306;28;19935;-71
2023/02/13 06:53:38;;;;;;;;;;;7.40;99.90;;;;;;8372519;28;19975;-71
2023/02/13 06:57:40;;;;;;;;;;;7.30;99.90;;;;;;8392199;28;19928;-71
2023/02/13 07:01:42;;;;;;;;;;;7.10;99.90;;;;;;8397280;28;19931;-71
2023/02/13 07:05:44;;;;;;;;;;;7.10;99.90;;;;;;8402667;28;20412;-71
2023/02/13 07:09:45;;;;;;;;;;;7.00;99.90;;;;;;8403483;28;20449;-71
2023/02/13 07:13:47;;;;;;;;;;;6.80;99.90;;;;;;8393990;28;20040;-71
2023/02/13 07:17:54;;;;;;;;;;;6.70;99.90;;;;;;8381248;28;19931;-71
2023/02/13 07:21:55;;;;;;;;;;;6.60;99.90;;;;;;8387837;28;20007;-71
2023/02/13 07:25:57;;;;;;;;;;;6.50;99.90;;;;;;8392921;28;19925;-71
2023/02/13 07:29:59;;;;;;;;;;;6.40;99.90;;;;;;8392259;28;19931;-71
2023/02/13 07:34:01;;;;;;;;;;;6.40;99.90;;;;;;8369582;28;19967;-71
2023/02/13 07:38:03;;;;;;;;;;;6.40;99.90;;;;;;8396097;28;19972;-71
2023/02/13 07:42:05;;;;;;;;;;;6.50;99.90;;;;;;8382002;28;20006;-71
2023/02/13 07:46:08;;;;;;;;;;;6.60;99.90;;;;;;8395729;28;19964;-70
2023/02/13 07:50:10;;;;;;;;;;;6.70;99.90;;;;;;8372688;28;19953;-71
2023/02/13 07:54:12;;;;;;;;;;;6.70;99.90;;;;;;8391822;28;20294;-71
2023/02/13 07:58:13;;;;;;;;;;;6.80;99.90;;;;;;8401932;28;19939;-71
2023/02/13 08:02:15;;;;;;;;;;;7.00;99.90;;;;;;8378045;28;19925;-71
2023/02/13 08:06:18;;;;;;;;;;;7.10;99.90;;;;;;8393852;28;19980;-71
2023/02/13 08:14:39;;;;;;;;;;;7.40;99.90;;;;;;8392139;28;19978;-71
2023/02/13 08:18:41;;;;;;;;;;;7.50;99.90;;;;;;8391791;28;19994;-71
2023/02/13 08:22:43;;;;;;;;;;;7.60;99.90;;;;;;8394447;28;20416;-71
2023/02/13 08:26:44;;;;;;;;;;;7.70;99.90;;;;;;8390511;28;19960;-71
2023/02/13 08:30:46;;;;;;;;;;;7.90;99.90;;;;;;8387419;28;19931;-71
2023/02/13 08:34:47;;;;;;;;;;;8.00;99.90;;;;;;8369378;28;19933;-71
2023/02/13 08:38:49;;;;;;;;;;;8.10;99.90;;;;;;8386274;28;20300;-71
2023/02/13 08:42:51;;;;;;;;;;;8.20;99.90;;;;;;8389473;28;19928;-71
2023/02/13 08:46:52;;;;;;;;;;;8.30;99.90;;;;;;8390306;28;19928;-71
2023/02/13 08:50:54;;;;;;;;;;;8.40;99.90;;;;;;8375313;28;20362;-71
2023/02/13 08:54:56;;;;;;;;;;;8.50;99.90;;;;;;8399839;28;19974;-71
2023/02/13 08:58:57;;;;;;;;;;;8.60;99.90;;;;;;8396995;28;19924;-71
2023/02/13 09:03:01;;;;;;;;;;;8.70;99.90;;;;;;8388800;28;20498;-71
2023/02/13 09:07:02;;;;;;;;;;;8.80;99.90;;;;;;8395703;28;20364;-71
2023/02/13 09:11:06;;;;;;;;;;;8.90;99.90;;;;;;8379669;28;20438;-71
2023/02/13 09:15:08;;;;;;;;;;;9.10;99.90;;;;;;8395029;28;19943;-71
2023/02/13 09:19:09;;;;;;;;;;;9.10;99.90;;;;;;8401603;28;19968;-71
2023/02/13 09:23:11;;;;;;;;;;;9.20;99.90;;;;;;8397439;28;19932;-71
2023/02/13 09:27:12;;;;;;;;;;;9.30;99.90;;;;;;8401098;28;20348;-71
2023/02/13 09:31:16;;;;;;;;;;;9.40;99.90;;;;;;8396613;28;20357;-71
2023/02/13 09:35:18;;;;;;;;;;;9.60;99.90;;;;;;8395408;28;19986;-71
2023/02/13 09:39:19;;;;;;;;;;;9.60;99.90;;;;;;8391342;28;20304;-71
2023/02/13 09:43:27;;;;;;;;;;;9.70;99.90;;;;;;8392578;28;19935;-71
2023/02/13 09:47:35;;;;;;;;;;;9.80;99.90;;;;;;8390879;28;19960;-71
2023/02/13 09:51:37;;;;;;;;;;;10.20;99.90;;;;;;8387658;28;19925;-71
2023/02/13 09:55:54;;;;;;;;;;;10.50;99.90;;;;;;8400178;28;19929;-71
2023/02/13 10:00:14;;;;;;;;;;;10.90;99.90;;;;;;8392649;28;19924;-71
2023/02/13 10:04:28;;;;;;;;;;;11.20;99.90;;;;;;8375923;28;19925;-71
2023/02/13 10:08:39;;;;;;;;;;;11.30;99.90;;;;;;8396868;28;20018;-71
2023/02/13 10:12:43;;;;;;;;;;;11.40;99.90;;;;;;8377145;28;19928;-71
2023/02/13 10:16:57;;;;;;;;;;;11.70;99.90;;;;;;8395061;28;19977;-71
2023/02/13 10:21:01;;;;;;;;;;;11.70;99.90;;;;;;8394692;28;19936;-71
2023/02/13 10:25:05;;;;;;;;;;;11.80;99.90;;;;;;8374698;28;19925;-71
2023/02/13 10:33:51;;;;;;;;;;;12.20;99.90;;;;;;8381698;28;19950;-71
2023/02/13 10:37:55;;;;;;;;;;;12.80;99.90;;;;;;8396474;28;19972;-71
2023/02/13 10:42:07;;;;;;;;;;;13.20;99.90;;;;;;8383821;28;19940;-71
2023/02/13 10:46:14;;;;;;;;;;;13.60;99.90;;;;;;8395525;28;19924;-71
2023/02/13 10:50:22;;;;;;;;;;;14.10;99.90;;;;;;8389764;28;20004;-71
2023/02/13 10:54:34;;;;;;;;;;;14.40;99.90;;;;;;8398168;28;20352;-71
2023/02/13 10:58:40;;;;;;;;;;;15.00;99.90;;;;;;8376387;28;19931;-71
2023/02/13 11:02:41;;;;;;;;;;;15.20;99.90;;;;;;8388969;28;19931;-71
2023/02/13 11:06:52;;;;;;;;;;;15.50;99.90;;;;;;8374547;28;19930;-71
2023/02/13 11:10:54;;;;;;;;;;;15.90;99.90;;;;;;8386507;28;19938;-71
2023/02/13 11:14:57;;;;;;;;;;;16.30;99.90;;;;;;8378514;28;19928;-71
2023/02/13 11:18:59;;;;;;;;;;;16.60;99.90;;;;;;8373510;28;19932;-71
2023/02/13 11:23:16;;;;;;;;;;;16.80;99.90;;;;;;8394884;28;19931;-71
2023/02/13 11:27:22;;;;;;;;;;;17.10;99.90;;;;;;8389208;28;19928;-71
2023/02/13 11:31:23;;;;;;;;;;;17.60;99.90;;;;;;8382992;28;20327;-71
2023/02/13 11:35:27;;;;;;;;;;;17.60;99.90;;;;;;8397606;28;20291;-71
2023/02/13 11:39:29;;;;;;;;;;;17.80;99.90;;;;;;8380545;28;20291;-71
2023/02/13 11:43:36;;;;;;;;;;;17.90;99.90;;;;;;8362330;28;19983;-71
2023/02/13 11:47:39;;;;;;;;;;;18.00;99.90;;;;;;8343823;28;19933;-71
2023/02/13 11:51:45;;;;;;;;;;;18.10;99.90;;;;;;8350236;28;19924;-71
2023/02/13 11:56:04;;;;;;;;;;;18.30;99.90;;;;;;8360193;28;19925;-71
2023/02/13 12:00:24;;;;;;;;;;;18.50;99.90;;;;;;8363096;28;19937;-71
2023/02/13 12:04:28;;;;;;;;;;;19.10;99.90;;;;;;8361199;28;20019;-71
2023/02/13 12:08:31;;;;;;;;;;;19.70;99.90;;;;;;8350756;28;19972;-71
2023/02/13 12:12:39;;;;;;;;;;;20.20;99.90;;;;;;8344805;28;19967;-71
2023/02/13 12:16:43;;;;;;;;;;;20.40;99.90;;;;;;8366729;28;20394;-71
2023/02/13 12:20:50;;;;;;;;;;;20.30;99.90;;;;;;8361886;28;20385;-71
2023/02/13 12:24:55;;;;;;;;;;;19.90;99.90;;;;;;8357772;28;19978;-71
2023/02/13 12:29:02;;;;;;;;;;;19.70;99.90;;;;;;8366050;28;19947;-71
2023/02/13 12:33:15;;;;;;;;;;;19.70;99.90;;;;;;8366955;28;19925;-71
2023/02/13 12:37:36;;;;;;;;;;;19.70;99.90;;;;;;8351797;28;19929;-71
2023/02/13 12:41:47;;;;;;;;;;;19.90;99.90;;;;;;8356160;28;19932;-72
2023/02/13 12:45:59;;;;;;;;;;;20.30;99.90;;;;;;8367694;28;20411;-71
2023/02/13 12:50:00;;;;;;;;;;;20.60;99.90;;;;;;8354890;28;20414;-71
2023/02/13 12:54:27;;;;;;;;;;;20.70;99.90;;;;;;8340907;28;19925;-71
2023/02/13 12:58:36;;;;;;;;;;;20.80;99.90;;;;;;8354393;28;20072;-71
2023/02/13 13:02:45;;;;;;;;;;;21.10;99.90;;;;;;8371114;28;19939;-71
2023/02/13 13:06:58;;;;;;;;;;;21.40;99.90;;;;;;8358594;28;19929;-71
2023/02/13 13:11:03;;;;;;;;;;;21.20;99.90;;;;;;8356767;28;20304;-71
2023/02/13 13:15:05;;;;;;;;;;;20.90;99.90;;;;;;8357830;28;20414;-71
2023/02/13 13:19:12;;;;;;;;;;;20.80;99.90;;;;;;8357525;28;19925;-71
2023/02/13 13:23:18;;;;;;;;;;;20.40;99.90;;;;;;8356845;28;19929;-71
2023/02/13 13:27:23;;;;;;;;;;;19.80;99.90;;;;;;8361778;28;19929;-71
2023/02/13 13:31:26;;;;;;;;;;;19.20;99.90;;;;;;8348996;28;19935;-71
2023/02/13 13:35:28;;;;;;;;;;;18.60;99.90;;;;;;8361276;28;20087;-71
2023/02/13 13:39:36;;;;;;;;;;;18.10;99.90;;;;;;8361639;28;19939;-71
2023/02/13 13:43:41;;;;;;;;;;;17.70;99.90;;;;;;8343156;28;19924;-71
2023/02/13 13:47:59;;;;;;;;;;;17.50;99.90;;;;;;8367574;28;19978;-71
2023/02/13 13:52:21;;;;;;;;;;;17.40;99.90;;;;;;8368755;28;19971;-71
2023/02/13 13:56:22;;;;;;;;;;;17.30;99.90;;;;;;8361135;28;19987;-71
2023/02/13 14:00:26;;;;;;;;;;;17.20;99.90;;;;;;8358669;28;20007;-71
2023/02/13 14:04:31;;;;;;;;;;;17.20;99.90;;;;;;8380884;28;19928;-71
2023/02/13 14:08:35;;;;;;;;;;;17.20;99.90;;;;;;8362132;28;20349;-71
2023/02/13 14:12:44;;;;;;;;;;;17.10;99.90;;;;;;8362234;28;19960;-71
2023/02/13 14:16:46;;;;;;;;;;;17.10;99.90;;;;;;8368493;28;20372;-71
2023/02/13 14:20:50;;;;;;;;;;;16.90;99.90;;;;;;8373601;28;20016;-71
2023/02/13 14:24:55;;;;;;;;;;;16.80;99.90;;;;;;8371171;28;20374;-71
2023/02/13 14:29:16;;;;;;;;;;;16.80;99.90;;;;;;8355989;28;19943;-71
2023/02/13 14:33:26;;;;;;;;;;;16.70;99.90;;;;;;8367004;28;19976;-71
2023/02/13 14:37:34;;;;;;;;;;;16.60;99.90;;;;;;8362842;28;19925;-71
2023/02/13 14:41:42;;;;;;;;;;;16.50;99.90;;;;;;8359700;28;20015;-71
2023/02/13 14:45:54;;;;;;;;;;;16.60;99.90;;;;;;8358369;28;19983;-71
2023/02/13 14:50:00;;;;;;;;;;;17.50;99.90;;;;;;8360352;28;19928;-71
2023/02/13 14:54:04;;;;;;;;;;;19.10;99.90;;;;;;8362441;28;19939;-71
2023/02/13 14:58:21;;;;;;;;;;;20.40;99.90;;;;;;8363249;28;19935;-71
2023/02/13 15:02:23;;;;;;;;;;;21.40;99.90;;;;;;8354846;28;19928;-71
2023/02/13 15:06:34;;;;;;;;;;;22.20;99.90;;;;;;8356012;28;20431;-71
2023/02/13 15:10:41;;;;;;;;;;;22.30;99.90;;;;;;8361854;28;19925;-71
2023/02/13 15:14:42;;;;;;;;;;;22.30;99.90;;;;;;8354434;28;19967;-71
2023/02/13 15:18:46;;;;;;;;;;;22.50;99.90;;;;;;8352260;28;20019;-71
2023/02/13 15:22:48;;;;;;;;;;;22.40;99.90;;;;;;8339635;28;20017;-71
2023/02/13 15:26:52;;;;;;;;;;;22.10;99.90;;;;;;8352928;28;20234;-71
2023/02/13 15:30:54;;;;;;;;;;;21.70;99.90;;;;;;8354353;28;20331;-71
2023/02/13 15:34:56;;;;;;;;;;;21.00;99.90;;;;;;8357407;28;19933;-71
2023/02/13 15:39:03;;;;;;;;;;;20.50;99.90;;;;;;8360835;28;19929;-71
2023/02/13 15:43:14;;;;;;;;;;;20.50;99.90;;;;;;8355191;28;19925;-71
2023/02/13 15:47:20;;;;;;;;;;;20.50;99.90;;;;;;8341278;28;20268;-71
2023/02/13 15:51:23;;;;;;;;;;;20.40;99.90;;;;;;8361566;28;20593;-71
2023/02/13 15:55:27;;;;;;;;;;;20.40;99.90;;;;;;8347498;28;19925;-72
2023/02/13 15:59:32;;;;;;;;;;;20.30;99.90;;;;;;8365136;28;19928;-71
2023/02/13 16:03:35;;;;;;;;;;;20.00;99.90;;;;;;8355759;28;19932;-71
2023/02/13 16:07:46;;;;;;;;;;;19.80;99.90;;;;;;8364082;28;20015;-71
2023/02/13 16:11:48;;;;;;;;;;;19.90;99.90;;;;;;8362606;28;19958;-71
2023/02/13 16:15:49;;;;;;;;;;;20.10;99.90;;;;;;8363348;28;20007;-71
2023/02/13 16:19:55;;;;;;;;;;;20.20;99.90;;;;;;8361904;28;19986;-71
2023/02/13 16:24:01;;;;;;;;;;;20.20;99.90;;;;;;8377185;28;19939;-71
2023/02/13 16:28:12;;;;;;;;;;;20.00;99.90;;;;;;8340906;28;19933;-71
2023/02/13 16:32:18;;;;;;;;;;;19.70;99.90;;;;;;8355948;28;19928;-71
2023/02/13 16:36:27;;;;;;;;;;;19.00;99.90;;;;;;8355371;28;20431;-71
2023/02/13 16:40:32;;;;;;;;;;;18.20;99.90;;;;;;8357670;28;19948;-71
2023/02/13 16:44:34;;;;;;;;;;;17.40;99.90;;;;;;8342460;28;19935;-71
2023/02/13 16:48:36;;;;;;;;;;;16.70;99.90;;;;;;8360710;28;19932;-71
2023/02/13 16:52:38;;;;;;;;;;;16.20;99.90;;;;;;8355874;28;19928;-71
2023/02/13 16:56:44;;;;;;;;;;;15.80;99.90;;;;;;8353805;28;20319;-71
2023/02/13 17:00:48;;;;;;;;;;;15.40;99.90;;;;;;8356658;28;19940;-71
2023/02/13 17:04:58;;;;;;;;;;;15.10;99.90;;;;;;8350149;28;19935;-71
2023/02/13 17:09:00;;;;;;;;;;;14.80;99.90;;;;;;8348275;28;19982;-71
2023/02/13 17:13:01;;;;;;;;;;;14.40;99.90;;;;;;8360536;28;19960;-71
2023/02/13 17:17:08;;;;;;;;;;;14.10;99.90;;;;;;8384888;28;19934;-71
2023/02/13 17:21:10;;;;;;;;;;;13.80;99.90;;;;;;8364397;28;20076;-71
2023/02/13 17:25:14;;;;;;;;;;;13.50;99.90;;;;;;8363696;28;20368;-71
2023/02/13 17:29:16;;;;;;;;;;;13.30;99.90;;;;;;8365928;28;20411;-71
2023/02/13 17:33:25;;;;;;;;;;;13.10;99.90;;;;;;8353713;28;19928;-71
2023/02/13 17:37:27;;;;;;;;;;;12.90;99.90;;;;;;8372844;28;20026;-71
2023/02/13 17:41:28;;;;;;;;;;;12.70;99.90;;;;;;8369209;28;19925;-71
2023/02/13 17:45:32;;;;;;;;;;;12.50;99.90;;;;;;8372454;28;19972;-71
2023/02/13 17:49:33;;;;;;;;;;;12.40;99.90;;;;;;8349279;28;20387;-70
2023/02/13 17:53:35;;;;;;;;;;;12.30;99.90;;;;;;8371039;28;19956;-71
2023/02/13 17:57:37;;;;;;;;;;;12.20;99.90;;;;;;8364154;28;19932;-71
2023/02/13 18:01:38;;;;;;;;;;;12.10;99.90;;;;;;8361501;28;20031;-71
2023/02/13 18:05:40;;;;;;;;;;;11.90;99.90;;;;;;8358652;28;19928;-70
2023/02/13 18:09:42;;;;;;;;;;;11.80;99.90;;;;;;8366646;28;20422;-71
2023/02/13 18:13:47;;;;;;;;;;;11.70;99.90;;;;;;8358674;28;19940;-71
2023/02/13 18:17:49;;;;;;;;;;;11.60;99.90;;;;;;8370295;28;19936;-71
2023/02/13 18:21:51;;;;;;;;;;;11.50;99.90;;;;;;8376871;28;19963;-71
2023/02/13 18:25:52;;;;;;;;;;;11.40;99.90;;;;;;8360129;28;19935;-71
2023/02/13 18:29:54;;;;;;;;;;;11.20;99.90;;;;;;8358770;28;19925;-71
2023/02/13 18:33:56;;;;;;;;;;;11.10;99.90;;;;;;8357420;28;19932;-71
2023/02/13 18:37:58;;;;;;;;;;;11.10;99.90;;;;;;8367601;28;20346;-70
2023/02/13 18:42:00;;;;;;;;;;;11.00;99.90;;;;;;8381220;28;19956;-70
2023/02/13 18:46:03;;;;;;;;;;;10.80;99.90;;;;;;8361343;28;19964;-70
2023/02/13 18:50:05;;;;;;;;;;;10.70;99.90;;;;;;8359529;28;19983;-71
2023/02/13 18:54:07;;;;;;;;;;;10.50;99.90;;;;;;8364885;28;19929;-70
2023/02/13 18:58:09;;;;;;;;;;;10.40;99.90;;;;;;8360662;28;20023;-70
2023/02/13 19:02:10;;;;;;;;;;;10.20;99.90;;;;;;8360913;28;19964;-71
2023/02/13 19:06:14;;;;;;;;;;;10.10;99.90;;;;;;8363167;28;19925;-70
2023/02/13 19:10:16;;;;;;;;;;;10.00;99.90;;;;;;8359168;28;19940;-70
2023/02/13 19:14:18;;;;;;;;;;;9.90;99.90;;;;;;8361707;28;20336;-71
2023/02/13 19:18:19;;;;;;;;;;;9.90;99.90;;;;;;8359111;28;20600;-70
2023/02/13 19:22:21;;;;;;;;;;;9.90;99.90;;;;;;8362661;28;20296;-70
2023/02/13 19:26:24;;;;;;;;;;;9.90;99.90;;;;;;8363058;28;20008;-71
2023/02/13 19:30:26;;;;;;;;;;;10.00;99.90;;;;;;8364796;28;19950;-70
2023/02/13 19:34:27;;;;;;;;;;;10.10;99.90;;;;;;8343012;28;19935;-70
2023/02/13 19:38:29;;;;;;;;;;;10.10;99.90;;;;;;8359877;28;19967;-70
2023/02/13 19:42:31;;;;;;;;;;;10.10;99.90;;;;;;8359183;28;19939;-70
2023/02/13 19:46:33;;;;;;;;;;;10.10;99.90;;;;;;8357203;28;20032;-70
2023/02/13 19:50:34;;;;;;;;;;;10.10;99.90;;;;;;8344673;28;20281;-70
2023/02/13 19:54:36;;;;;;;;;;;10.10;99.90;;;;;;8361010;28;19931;-70
2023/02/13 19:58:38;;;;;;;;;;;10.00;99.90;;;;;;8342770;28;19932;-70
2023/02/13 20:02:41;;;;;;;;;;;10.00;99.90;;;;;;8362023;28;19964;-71
2023/02/13 20:06:42;;;;;;;;;;;9.90;99.90;;;;;;8360293;28;19937;-70
2023/02/13 20:10:44;;;;;;;;;;;9.80;99.90;;;;;;8364598;28;20375;-70
2023/02/13 20:14:46;;;;;;;;;;;9.70;99.90;;;;;;8371334;28;19936;-70
2023/02/13 20:18:48;;;;;;;;;;;9.60;99.90;;;;;;8360112;28;20011;-71
2023/02/13 20:22:49;;;;;;;;;;;9.50;99.90;;;;;;8364834;28;19972;-71
2023/02/13 20:26:51;;;;;;;;;;;9.40;99.90;;;;;;8359627;28;19925;-71
2023/02/13 20:30:53;;;;;;;;;;;9.40;99.90;;;;;;8346842;28;19925;-70
2023/02/13 20:34:55;;;;;;;;;;;9.20;99.90;;;;;;8345290;28;19928;-70
2023/02/13 20:39:02;;;;;;;;;;;9.10;99.90;;;;;;8361920;28;19935;-71
2023/02/13 20:43:03;;;;;;;;;;;8.90;99.90;;;;;;8367308;28;20582;-71
2023/02/13 20:47:05;;;;;;;;;;;8.80;99.90;;;;;;8353756;28;19959;-70
2023/02/13 20:51:10;;;;;;;;;;;8.60;99.90;;;;;;8362563;28;20307;-71
2023/02/13 20:55:12;;;;;;;;;;;8.60;99.90;;;;;;8369661;28;20178;-71
2023/02/13 20:59:13;;;;;;;;;;;8.50;99.90;;;;;;8380690;28;20435;-70
2023/02/13 21:03:15;;;;;;;;;;;8.40;99.90;;;;;;8355047;28;19971;-70
2023/02/13 21:07:17;;;;;;;;;;;8.30;99.90;;;;;;8377479;28;20351;-70
2023/02/13 21:11:19;;;;;;;;;;;8.20;99.90;;;;;;8372645;28;19935;-70
2023/02/13 21:15:20;;;;;;;;;;;8.10;99.90;;;;;;8374528;28;19936;-70
2023/02/13 21:19:23;;;;;;;;;;;8.10;99.90;;;;;;8358722;28;19929;-71
2023/02/13 21:23:24;;;;;;;;;;;8.00;99.90;;;;;;8367756;28;19983;-70
2023/02/13 21:27:27;;;;;;;;;;;7.90;99.90;;;;;;8368885;28;19959;-71
2023/02/13 21:31:34;;;;;;;;;;;7.80;99.90;;;;;;8368810;28;20342;-71
2023/02/13 21:35:35;;;;;;;;;;;7.80;99.90;;;;;;8371349;28;19990;-70
2023/02/13 21:39:38;;;;;;;;;;;7.70;99.90;;;;;;8376116;28;20389;-70
2023/02/13 21:43:45;;;;;;;;;;;7.60;99.90;;;;;;8370298;28;19940;-71
2023/02/13 21:47:46;;;;;;;;;;;7.50;99.90;;;;;;8371973;28;20476;-70
2023/02/13 21:51:48;;;;;;;;;;;7.40;99.90;;;;;;8372503;28;20450;-71
2023/02/13 21:55:50;;;;;;;;;;;7.30;99.90;;;;;;8364623;28;19932;-71
2023/02/13 21:59:51;;;;;;;;;;;7.20;99.90;;;;;;8365628;28;19925;-70
2023/02/13 22:03:54;;;;;;;;;;;7.10;99.90;;;;;;8382832;28;19925;-71
2023/02/13 22:08:11;;;;;;;;;;;7.10;99.90;;;;;;8395530;28;19928;-70
2023/02/13 22:12:12;;;;;;;;;;;7.00;99.90;;;;;;8400500;28;19931;-71
2023/02/13 22:16:14;;;;;;;;;;;7.00;99.90;;;;;;8397092;28;19928;-71
2023/02/13 22:20:21;;;;;;;;;;;6.90;99.90;;;;;;8398761;28;20533;-70
2023/02/13 22:24:22;;;;;;;;;;;6.70;99.90;;;;;;8393540;28;19928;-71
2023/02/13 22:28:24;;;;;;;;;;;6.70;99.90;;;;;;8398382;28;19930;-71
2023/02/13 22:32:25;;;;;;;;;;;6.60;99.90;;;;;;8398094;28;19979;-70
2023/02/13 22:46:34;;;;;;;;;;;6.30;99.90;;;;;;8390576;28;19938;-71
2023/02/13 22:50:36;;;;;;;;;;;6.20;99.90;;;;;;8397412;28;20320;-71
2023/02/13 22:54:38;;;;;;;;;;;6.10;99.90;;;;;;8408654;28;19934;-70
2023/02/13 22:58:39;;;;;;;;;;;6.00;99.90;;;;;;8395227;28;19929;-71
2023/02/13 23:02:41;;;;;;;;;;;6.00;99.90;;;;;;8390011;28;19924;-70
2023/02/13 23:06:43;;;;;;;;;;;5.90;99.90;;;;;;8390627;28;19974;-70
2023/02/13 23:12:34;;;;;;;;;;;5.90;99.90;;;;;;8391641;28;19940;-71
2023/02/13 23:15:09;;;;;;;;;;;5.80;99.90;;;;;;8393987;28;19931;-70
2023/02/13 23:19:11;;;;;;;;;;;5.80;99.90;;;;;;8391122;28;20423;-70
2023/02/13 23:23:13;;;;;;;;;;;5.80;99.90;;;;;;8396727;28;19928;-71
2023/02/13 23:27:15;;;;;;;;;;;5.70;99.90;;;;;;8398408;28;19924;-70
2023/02/13 23:31:16;;;;;;;;;;;5.70;99.90;;;;;;8392780;28;19951;-71
2023/02/13 23:35:18;;;;;;;;;;;5.60;99.90;;;;;;8397304;28;19936;-70
2023/02/13 23:39:20;;;;;;;;;;;5.50;99.90;;;;;;8386452;28;19924;-70
2023/02/13 23:43:22;;;;;;;;;;;5.40;99.90;;;;;;8392250;28;19929;-70
2023/02/13 23:47:23;;;;;;;;;;;5.40;99.90;;;;;;8392077;28;20015;-71
2023/02/13 23:51:25;;;;;;;;;;;5.30;99.90;;;;;;8394625;28;20020;-71
2023/02/13 23:55:26;;;;;;;;;;;5.30;99.90;;;;;;8391646;28;19971;-70
2023/02/13 23:59:28;;;;;;;;;;;5.20;99.90;;;;;;8392734;28;19924;-70
